createdAt,value
2023-06-04T00:01:25.494Z,2.42
2023-06-04T00:04:28.157Z,2.00
2023-06-04T00:07:30.903Z,2.10
2023-06-04T00:10:34.846Z,2.00
2023-06-04T00:13:37.330Z,2.47
2023-06-04T00:16:39.890Z,1.83
2023-06-04T00:19:42.545Z,2.00
2023-06-04T00:22:45.241Z,2.10
2023-06-04T00:25:47.871Z,2.10
2023-06-04T00:28:50.400Z,2.90
2023-06-04T00:31:52.977Z,1.95
2023-06-04T00:34:56.569Z,1.97
2023-06-04T00:37:59.018Z,2.13
2023-06-04T00:41:01.460Z,1.90
2023-06-04T00:44:07.806Z,2.05
2023-06-04T00:47:10.714Z,1.98
2023-06-04T00:50:14.543Z,2.10
2023-06-04T00:53:17.677Z,2.53
2023-06-04T00:56:20.443Z,1.83
2023-06-04T00:59:23.129Z,2.10
2023-06-04T01:02:28.802Z,1.98
2023-06-04T01:05:40.083Z,2.10
2023-06-04T01:08:44.615Z,2.00
2023-06-04T01:11:47.074Z,1.63
2023-06-04T01:14:49.687Z,2.10
2023-06-04T01:17:58.684Z,2.10
2023-06-04T01:21:08.465Z,1.87
2023-06-04T01:24:11.134Z,1.60
2023-06-04T01:27:13.747Z,1.80
2023-06-04T01:30:17.304Z,1.60
2023-06-04T01:33:21.299Z,2.10
2023-06-04T01:36:24.037Z,2.33
2023-06-04T01:39:26.755Z,1.98
2023-06-04T01:42:29.189Z,1.90
2023-06-04T01:45:32.256Z,1.77
2023-06-04T01:48:35.006Z,1.83
2023-06-04T01:51:38.202Z,1.73
2023-06-04T01:54:41.926Z,1.80
2023-06-04T01:57:45.991Z,1.88
2023-06-04T02:00:50.908Z,1.80
2023-06-04T02:03:53.862Z,1.90
2023-06-04T02:06:57.808Z,1.60
2023-06-04T02:10:00.316Z,1.75
2023-06-04T02:13:04.429Z,1.80
2023-06-04T02:16:07.297Z,2.00
2023-06-04T02:19:09.856Z,2.20
2023-06-04T02:22:13.324Z,1.60
2023-06-04T02:25:16.629Z,1.70
2023-06-04T02:28:19.269Z,1.42
2023-06-04T02:31:22.401Z,1.92
2023-06-04T02:34:26.000Z,1.63
2023-06-04T02:37:28.460Z,1.90
2023-06-04T02:40:30.903Z,1.88
2023-06-04T02:43:33.740Z,1.88
2023-06-04T02:46:36.229Z,2.00
2023-06-04T02:49:39.117Z,2.47
2023-06-04T02:52:43.992Z,2.13
2023-06-04T02:55:47.127Z,2.05
2023-06-04T02:58:54.643Z,2.10
2023-06-04T03:01:57.382Z,2.05
2023-06-04T03:04:59.922Z,1.92
2023-06-04T03:08:03.758Z,1.57
2023-06-04T03:11:06.850Z,1.85
2023-06-04T03:14:09.466Z,1.70
2023-06-04T03:17:12.460Z,1.80
2023-06-04T03:20:14.951Z,1.73
2023-06-04T03:23:17.697Z,1.47
2023-06-04T03:26:20.181Z,1.55
2023-06-04T03:29:22.672Z,1.60
2023-06-04T03:32:27.053Z,1.58
2023-06-04T03:35:30.134Z,1.70
2023-06-04T03:38:32.647Z,1.40
2023-06-04T03:41:35.659Z,1.77
2023-06-04T03:44:38.200Z,1.33
2023-06-04T03:47:41.764Z,1.40
2023-06-04T03:50:47.203Z,1.30
2023-06-04T03:53:50.849Z,1.70
2023-06-04T03:56:53.473Z,1.40
2023-06-04T03:59:56.554Z,1.63
2023-06-04T04:02:59.663Z,1.30
2023-06-04T04:06:04.892Z,1.20
2023-06-04T04:09:08.034Z,1.37
2023-06-04T04:12:12.054Z,1.40
2023-06-04T04:15:14.657Z,1.33
2023-06-04T04:18:20.983Z,1.40
2023-06-04T04:21:24.406Z,1.38
2023-06-04T04:24:28.279Z,1.43
2023-06-04T04:27:39.761Z,1.38
2023-06-04T04:30:45.565Z,1.60
2023-06-04T04:33:48.968Z,1.27
2023-06-04T04:36:53.884Z,1.48
2023-06-04T04:39:58.406Z,1.40
2023-06-04T04:43:03.683Z,1.40
2023-06-04T04:46:07.326Z,1.48
2023-06-04T04:49:10.327Z,1.30
2023-06-04T04:52:12.743Z,1.38
2023-06-04T04:55:17.440Z,1.50
2023-06-04T04:58:22.850Z,1.17
2023-06-04T05:01:26.842Z,1.40
2023-06-04T05:04:30.182Z,1.25
2023-06-04T05:07:33.082Z,1.40
2023-06-04T05:10:37.147Z,1.20
2023-06-04T05:13:42.624Z,1.50
2023-06-04T05:16:47.013Z,1.30
2023-06-04T05:19:49.682Z,1.20
2023-06-04T05:22:52.872Z,1.30
2023-06-04T05:25:57.090Z,1.80
2023-06-04T05:28:59.798Z,1.10
2023-06-04T05:32:05.875Z,1.10
2023-06-04T05:35:09.376Z,1.27
2023-06-04T05:38:18.460Z,1.13
2023-06-04T05:41:24.893Z,1.10
2023-06-04T05:44:27.894Z,1.27
2023-06-04T05:47:31.152Z,1.20
2023-06-04T05:50:34.423Z,1.20
2023-06-04T05:53:37.819Z,1.10
2023-06-04T05:56:40.454Z,1.20
2023-06-04T05:59:43.226Z,1.08
2023-06-04T06:02:53.834Z,1.05
2023-06-04T06:06:14.068Z,0.98
2023-06-04T06:09:19.865Z,0.95
2023-06-04T06:12:22.519Z,1.10
2023-06-04T06:15:24.994Z,0.90
2023-06-04T06:18:28.853Z,1.05
2023-06-04T06:21:31.733Z,1.10
2023-06-04T06:24:34.516Z,1.10
2023-06-04T06:27:37.387Z,1.00
2023-06-04T06:30:40.864Z,1.20
2023-06-04T06:33:43.490Z,1.20
2023-06-04T06:36:45.943Z,1.40
2023-06-04T06:39:48.689Z,1.40
2023-06-04T06:42:54.383Z,1.30
2023-06-04T06:45:56.916Z,1.15
2023-06-04T06:48:59.595Z,1.40
2023-06-04T06:52:02.096Z,1.20
2023-06-04T06:55:05.839Z,1.67
2023-06-04T06:58:08.521Z,1.40
2023-06-04T07:01:11.439Z,1.40
2023-06-04T07:04:14.113Z,1.55
2023-06-04T07:07:18.773Z,1.13
2023-06-04T07:10:22.051Z,1.20
2023-06-04T07:13:24.728Z,1.13
2023-06-04T07:16:27.272Z,1.50
2023-06-04T07:19:29.786Z,1.30
2023-06-04T07:22:33.842Z,1.05
2023-06-04T07:25:36.406Z,1.20
2023-06-04T07:28:38.888Z,1.20
2023-06-04T07:31:42.744Z,1.10
2023-06-04T07:34:45.967Z,0.98
2023-06-04T07:37:50.156Z,1.40
2023-06-04T07:40:52.783Z,1.30
2023-06-04T07:43:55.455Z,1.10
2023-06-04T07:46:59.030Z,1.20
2023-06-04T07:50:03.494Z,1.48
2023-06-04T07:53:07.562Z,1.38
2023-06-04T07:56:10.108Z,1.40
2023-06-04T07:59:12.674Z,1.10
2023-06-04T08:02:16.176Z,1.10
2023-06-04T08:05:18.926Z,1.30
2023-06-04T08:08:21.452Z,1.40
2023-06-04T08:11:23.998Z,1.60
2023-06-04T08:14:28.293Z,1.43
2023-06-04T08:17:30.791Z,1.20
2023-06-04T08:20:33.337Z,1.33
2023-06-04T08:23:35.782Z,1.27
2023-06-04T08:26:38.450Z,1.20
2023-06-04T08:29:41.581Z,1.07
2023-06-04T08:32:44.217Z,1.25
2023-06-04T08:35:46.862Z,1.30
2023-06-04T08:38:52.917Z,1.13
2023-06-04T08:42:03.190Z,1.17
2023-06-04T08:45:07.117Z,1.20
2023-06-04T08:48:14.362Z,1.10
2023-06-04T08:51:17.744Z,1.20
2023-06-04T08:54:20.189Z,1.10
2023-06-04T08:57:22.877Z,1.00
2023-06-04T09:00:25.486Z,0.80
2023-06-04T09:03:29.283Z,1.00
2023-06-04T09:06:34.144Z,1.20
2023-06-04T09:09:40.024Z,1.20
2023-06-04T09:12:48.793Z,1.10
2023-06-04T09:16:04.720Z,1.00
2023-06-04T09:19:07.711Z,1.10
2023-06-04T09:22:10.203Z,1.30
2023-06-04T09:25:24.526Z,0.90
2023-06-04T09:28:31.694Z,1.20
2023-06-04T09:31:38.301Z,1.30
2023-06-04T09:34:46.260Z,1.20
2023-06-04T09:37:57.167Z,1.23
2023-06-04T09:41:01.873Z,1.30
2023-06-04T09:44:05.070Z,1.02
2023-06-04T09:47:07.644Z,1.40
2023-06-04T09:50:12.397Z,1.13
2023-06-04T09:53:19.521Z,1.42
2023-06-04T09:56:22.318Z,1.23
2023-06-04T09:59:26.916Z,1.10
2023-06-04T10:02:31.386Z,1.27
2023-06-04T10:05:35.562Z,1.27
2023-06-04T10:08:42.885Z,1.23
2023-06-04T10:11:52.153Z,1.40
2023-06-04T10:15:03.054Z,1.92
2023-06-04T10:18:07.271Z,1.20
2023-06-04T10:21:10.621Z,1.45
2023-06-04T10:24:15.570Z,1.15
2023-06-04T10:27:19.142Z,1.17
2023-06-04T10:30:21.830Z,1.33
2023-06-04T10:33:27.391Z,1.33
2023-06-04T10:36:30.074Z,1.10
2023-06-04T10:39:33.586Z,1.15
2023-06-04T10:42:43.953Z,1.38
2023-06-04T10:45:47.003Z,1.63
2023-06-04T10:48:54.205Z,1.57
2023-06-04T10:51:57.338Z,1.35
2023-06-04T10:55:07.949Z,1.30
2023-06-04T10:58:10.466Z,1.30
2023-06-04T11:01:14.783Z,1.48
2023-06-04T11:04:25.985Z,1.60
2023-06-04T11:07:28.596Z,1.48
2023-06-04T11:10:35.242Z,1.60
2023-06-04T11:13:37.656Z,1.70
2023-06-04T11:16:40.654Z,1.80
2023-06-04T11:19:43.449Z,1.63
2023-06-04T11:23:13.622Z,1.70
2023-06-04T11:26:16.242Z,1.90
2023-06-04T11:29:19.068Z,1.50
2023-06-04T11:32:26.024Z,1.70
2023-06-04T11:35:28.705Z,1.80
2023-06-04T11:38:31.199Z,1.50
2023-06-04T11:41:36.470Z,1.70
2023-06-04T11:44:39.722Z,1.80
2023-06-04T11:47:54.403Z,1.67
2023-06-04T11:50:57.606Z,1.67
2023-06-04T11:54:00.688Z,1.80
2023-06-04T11:57:05.702Z,1.55
2023-06-04T12:00:11.851Z,1.70
2023-06-04T12:03:14.752Z,1.45
2023-06-04T12:06:20.475Z,1.70
2023-06-04T12:09:30.503Z,1.70
2023-06-04T12:12:33.008Z,1.77
2023-06-04T12:15:35.621Z,1.90
2023-06-04T12:18:38.150Z,1.63
2023-06-04T12:21:40.936Z,1.87
2023-06-04T12:24:54.559Z,1.83
2023-06-04T12:27:57.572Z,1.80
2023-06-04T12:31:00.134Z,1.50
2023-06-04T12:34:02.747Z,1.90
2023-06-04T12:37:07.118Z,1.90
2023-06-04T12:40:10.230Z,1.88
2023-06-04T12:43:12.716Z,1.90
2023-06-04T12:46:15.348Z,1.70
2023-06-04T12:49:17.899Z,1.77
2023-06-04T12:52:20.479Z,1.87
2023-06-04T12:55:22.966Z,2.00
2023-06-04T12:58:25.424Z,1.92
2023-06-04T13:01:28.661Z,2.10
2023-06-04T13:04:31.376Z,1.60
2023-06-04T13:07:34.026Z,1.90
2023-06-04T13:10:36.815Z,1.52
2023-06-04T13:13:39.354Z,1.83
2023-06-04T13:16:42.326Z,1.70
2023-06-04T13:19:44.912Z,1.80
2023-06-04T13:22:48.270Z,1.90
2023-06-04T13:25:50.790Z,1.90
2023-06-04T13:28:53.590Z,1.60
2023-06-04T13:31:56.083Z,1.75
2023-06-04T13:34:58.743Z,1.80
2023-06-04T13:38:01.359Z,1.97
2023-06-04T13:41:04.008Z,1.80
2023-06-04T13:44:07.742Z,2.00
2023-06-04T13:47:10.278Z,1.75
2023-06-04T13:50:12.778Z,2.05
2023-06-04T13:53:15.381Z,1.90
2023-06-04T13:56:17.853Z,2.00
2023-06-04T13:59:20.459Z,2.10
2023-06-04T14:02:23.148Z,2.30
2023-06-04T14:05:28.549Z,1.80
2023-06-04T14:08:31.421Z,1.77
2023-06-04T14:11:34.452Z,2.33
2023-06-04T14:14:40.340Z,1.92
2023-06-04T14:17:43.200Z,1.92
2023-06-04T14:20:45.920Z,2.08
2023-06-04T14:23:48.437Z,1.90
2023-06-04T14:26:51.690Z,2.08
2023-06-04T14:29:54.129Z,1.83
2023-06-04T14:32:56.786Z,2.20
2023-06-04T14:35:59.337Z,2.08
2023-06-04T14:39:01.955Z,2.13
2023-06-04T14:42:04.708Z,1.77
2023-06-04T14:45:07.938Z,1.98
2023-06-04T14:48:14.725Z,1.90
2023-06-04T14:51:17.790Z,1.55
2023-06-04T14:54:20.302Z,1.70
2023-06-04T14:57:22.876Z,1.52
2023-06-04T15:00:25.673Z,1.60
2023-06-04T15:03:28.336Z,2.00
2023-06-04T15:06:31.152Z,1.52
2023-06-04T15:09:33.650Z,1.80
2023-06-04T15:12:39.190Z,2.10
2023-06-04T15:15:41.995Z,1.67
2023-06-04T15:18:44.949Z,2.22
2023-06-04T15:21:47.562Z,2.10
2023-06-04T15:24:50.341Z,1.70
2023-06-04T15:27:53.011Z,2.00
2023-06-04T15:30:55.831Z,1.73
2023-06-04T15:33:58.402Z,1.70
2023-06-04T15:37:00.866Z,1.98
2023-06-04T15:40:04.546Z,2.00
2023-06-04T15:43:07.319Z,2.30
2023-06-04T15:46:09.832Z,2.20
2023-06-04T15:49:12.413Z,2.17
2023-06-04T15:52:14.931Z,2.13
2023-06-04T15:55:17.522Z,2.60
2023-06-04T15:58:20.120Z,2.30
2023-06-04T16:01:22.903Z,1.98
2023-06-04T16:04:25.429Z,2.15
2023-06-04T16:07:27.904Z,2.70
2023-06-04T16:10:30.539Z,2.40
2023-06-04T16:13:33.042Z,2.58
2023-06-04T16:16:36.417Z,2.40
2023-06-04T16:19:39.015Z,2.50
2023-06-04T16:22:41.936Z,2.17
2023-06-04T16:25:44.455Z,2.20
2023-06-04T16:28:46.972Z,2.28
2023-06-04T16:31:49.781Z,2.38
2023-06-04T16:34:52.377Z,2.22
2023-06-04T16:37:55.142Z,2.20
2023-06-04T16:40:57.725Z,2.30
2023-06-04T16:44:00.247Z,2.50
2023-06-04T16:47:02.841Z,2.30
2023-06-04T16:50:07.164Z,2.22
2023-06-04T16:53:10.359Z,2.40
2023-06-04T16:56:12.941Z,2.43
2023-06-04T16:59:15.551Z,2.20
2023-06-04T17:02:18.481Z,2.30
2023-06-04T17:05:25.403Z,2.20
2023-06-04T17:08:28.444Z,2.10
2023-06-04T17:11:33.831Z,1.93
2023-06-04T17:14:36.637Z,2.20
2023-06-04T17:17:39.165Z,2.22
2023-06-04T17:20:41.749Z,2.17
2023-06-04T17:23:48.891Z,2.00
2023-06-04T17:26:52.079Z,2.10
2023-06-04T17:29:54.585Z,2.00
2023-06-04T17:32:57.267Z,2.00
2023-06-04T17:35:59.887Z,2.00
2023-06-04T17:39:02.618Z,1.98
2023-06-04T17:42:05.792Z,1.90
2023-06-04T17:45:11.334Z,2.10
2023-06-04T17:48:13.910Z,2.20
2023-06-04T17:51:16.631Z,1.70
2023-06-04T17:54:19.459Z,2.13
2023-06-04T17:57:22.049Z,1.90
2023-06-04T18:00:24.572Z,2.10
2023-06-04T18:03:27.192Z,2.20
2023-06-04T18:06:29.766Z,1.95
2023-06-04T18:09:32.262Z,1.83
2023-06-04T18:12:38.417Z,2.10
2023-06-04T18:15:40.897Z,2.15
2023-06-04T18:18:43.947Z,2.00
2023-06-04T18:21:46.463Z,2.00
2023-06-04T18:24:49.174Z,1.70
2023-06-04T18:27:51.854Z,2.00
2023-06-04T18:30:54.541Z,1.70
2023-06-04T18:34:02.839Z,2.00
2023-06-04T18:37:06.096Z,1.63
2023-06-04T18:40:11.658Z,2.00
2023-06-04T18:43:15.538Z,1.70
2023-06-04T18:46:19.309Z,1.98
2023-06-04T18:49:23.052Z,2.10
2023-06-04T18:52:25.858Z,1.77
2023-06-04T18:55:28.431Z,1.83
2023-06-04T18:58:30.910Z,1.83
2023-06-04T19:01:33.479Z,2.15
2023-06-04T19:04:36.194Z,2.30
2023-06-04T19:07:40.979Z,1.70
2023-06-04T19:10:46.614Z,1.75
2023-06-04T19:13:49.657Z,1.57
2023-06-04T19:16:52.559Z,1.77
2023-06-04T19:19:56.002Z,1.90
2023-06-04T19:22:58.731Z,1.85
2023-06-04T19:26:01.890Z,1.88
2023-06-04T19:29:04.557Z,1.67
2023-06-04T19:32:07.479Z,2.05
2023-06-04T19:35:10.268Z,1.75
2023-06-04T19:38:13.022Z,1.83
2023-06-04T19:41:15.603Z,2.00
2023-06-04T19:44:18.553Z,2.00
2023-06-04T19:47:21.246Z,1.80
2023-06-04T19:50:23.923Z,1.90
2023-06-04T19:53:26.526Z,1.75
2023-06-04T19:56:29.271Z,1.80
2023-06-04T19:59:32.215Z,1.77
2023-06-04T20:02:36.060Z,2.00
2023-06-04T20:05:38.796Z,1.70
2023-06-04T20:08:41.337Z,1.80
2023-06-04T20:11:43.904Z,1.77
2023-06-04T20:14:47.285Z,1.60
2023-06-04T20:17:49.836Z,1.73
2023-06-04T20:20:53.375Z,1.50
2023-06-04T20:23:56.326Z,1.58
2023-06-04T20:26:58.829Z,1.70
2023-06-04T20:30:01.432Z,1.60
2023-06-04T20:33:04.201Z,1.83
2023-06-04T20:36:09.540Z,1.67
2023-06-04T20:39:12.385Z,1.77
2023-06-04T20:42:14.842Z,1.67
2023-06-04T20:45:17.748Z,1.53
2023-06-04T20:48:20.192Z,1.67
2023-06-04T20:51:22.712Z,1.65
2023-06-04T20:54:25.255Z,1.40
2023-06-04T20:57:27.837Z,1.98
2023-06-04T21:00:32.649Z,1.40
2023-06-04T21:03:35.292Z,1.88
2023-06-04T21:06:38.519Z,1.63
2023-06-04T21:09:41.401Z,1.70
2023-06-04T21:12:43.874Z,1.85
2023-06-04T21:15:46.588Z,1.77
2023-06-04T21:18:52.420Z,1.80
2023-06-04T21:21:54.902Z,1.50
2023-06-04T21:24:57.447Z,2.03
2023-06-04T21:28:00.038Z,1.70
2023-06-04T21:31:02.595Z,1.80
2023-06-04T21:34:05.102Z,1.90
2023-06-04T21:37:07.690Z,2.05
2023-06-04T21:40:10.561Z,1.83
2023-06-04T21:43:13.178Z,1.80
2023-06-04T21:46:16.232Z,1.60
2023-06-04T21:49:18.807Z,1.92
2023-06-04T21:52:25.580Z,2.00
2023-06-04T21:55:28.865Z,1.80
2023-06-04T21:58:31.447Z,1.70
2023-06-04T22:01:34.036Z,1.80
2023-06-04T22:04:36.598Z,1.95
2023-06-04T22:07:39.120Z,1.77
2023-06-04T22:10:41.615Z,1.77
2023-06-04T22:13:44.432Z,1.50
2023-06-04T22:16:46.872Z,1.70
2023-06-04T22:19:49.532Z,1.80
2023-06-04T22:22:52.075Z,1.58
2023-06-04T22:25:54.689Z,1.77
2023-06-04T22:28:57.194Z,1.67
2023-06-04T22:31:59.746Z,1.73
2023-06-04T22:35:02.244Z,1.55
2023-06-04T22:38:04.807Z,1.83
2023-06-04T22:41:07.520Z,1.75
2023-06-04T22:44:10.221Z,1.80
2023-06-04T22:47:13.094Z,1.60
2023-06-04T22:50:16.001Z,1.70
2023-06-04T22:53:20.030Z,1.60
2023-06-04T22:56:23.086Z,1.60
2023-06-04T22:59:27.526Z,1.75
2023-06-04T23:02:30.157Z,1.60
2023-06-04T23:05:33.352Z,1.80
2023-06-04T23:08:35.883Z,1.70
2023-06-04T23:11:38.306Z,1.55
2023-06-04T23:14:41.041Z,1.60
2023-06-04T23:17:43.503Z,1.73
2023-06-04T23:20:46.138Z,1.70
2023-06-04T23:23:48.705Z,1.60
2023-06-04T23:26:52.110Z,1.90
2023-06-04T23:29:54.621Z,1.90
2023-06-04T23:32:59.177Z,1.70
2023-06-04T23:36:01.793Z,1.70
2023-06-04T23:39:04.989Z,1.92
2023-06-04T23:42:07.573Z,2.00
2023-06-04T23:45:10.714Z,2.10
2023-06-04T23:48:13.194Z,2.13
2023-06-04T23:51:15.639Z,1.80
2023-06-04T23:54:21.288Z,2.20
2023-06-04T23:57:23.797Z,1.73
